Time;durP1;ratioP1;P1;durP2;ratioP2;P2;SDS_P1;SDS_P2;PMS_P1;PMS_P2;Temp;Humidity;BMP_temperature;BMP_pressure;BME280_temperature;BME280_humidity;BME280_pressure;Samples;Min_cycle;Max_cycle;Signal;HPM_P1;HPM_P2
2021/09/12 00:00:30;;;;;;;11.93;6.82;;;;;;;;;;4756440;30;20059;-86
2021/09/12 00:02:55;;;;;;;13.90;6.93;;;;;;;;;;4774007;30;20035;-85
2021/09/12 00:05:21;;;;;;;10.70;6.45;;;;;;;;;;4789227;30;20654;-82
2021/09/12 00:07:46;;;;;;;12.13;6.20;;;;;;;;;;4788426;30;20035;-81
2021/09/12 00:10:13;;;;;;;9.70;6.25;;;;;;;;;;4773122;30;20031;-85
2021/09/12 00:12:39;;;;;;;10.55;5.30;;;;;;;;;;4757998;30;20043;-86
2021/09/12 00:15:07;;;;;;;10.68;5.53;;;;;;;;;;4789597;30;20035;-82
2021/09/12 00:17:32;;;;;;;9.52;5.43;;;;;;;;;;4773764;30;20039;-85
2021/09/12 00:19:58;;;;;;;12.35;5.72;;;;;;;;;;4772527;30;20472;-85
2021/09/12 00:22:23;;;;;;;12.43;5.97;;;;;;;;;;4773170;30;20072;-86
2021/09/12 00:24:49;;;;;;;11.82;5.55;;;;;;;;;;4758140;30;20031;-85
2021/09/12 00:27:14;;;;;;;8.93;5.00;;;;;;;;;;4773469;30;20047;-82
2021/09/12 00:29:40;;;;;;;8.52;5.00;;;;;;;;;;4788300;29;20035;-85
2021/09/12 00:32:06;;;;;;;11.05;5.28;;;;;;;;;;4788493;29;20031;-82
2021/09/12 00:34:31;;;;;;;9.60;5.30;;;;;;;;;;4758253;30;20027;-85
2021/09/12 00:36:56;;;;;;;9.45;5.18;;;;;;;;;;4775650;30;20042;-82
2021/09/12 00:39:22;;;;;;;12.50;4.50;;;;;;;;;;4773275;30;20042;-84
2021/09/12 00:41:47;;;;;;;9.43;4.50;;;;;;;;;;4790641;29;20043;-82
2021/09/12 00:44:13;;;;;;;11.27;4.70;;;;;;;;;;4758411;30;20105;-82
2021/09/12 00:46:44;;;;;;;9.50;4.40;;;;;;;;;;4758176;30;20630;-83
2021/09/12 00:49:10;;;;;;;9.98;4.20;;;;;;;;;;4787525;30;20088;-85
2021/09/12 00:51:36;;;;;;;12.25;4.60;;;;;;;;;;4787899;30;20560;-82
2021/09/12 00:54:04;;;;;;;6.80;3.67;;;;;;;;;;4788977;30;20407;-83
2021/09/12 00:56:30;;;;;;;7.70;3.85;;;;;;;;;;4783534;29;20054;-83
2021/09/12 00:58:57;;;;;;;9.35;4.28;;;;;;;;;;4773243;30;20047;-84
2021/09/12 01:01:25;;;;;;;8.10;3.70;;;;;;;;;;4771331;30;20050;-83
2021/09/12 01:03:52;;;;;;;7.90;3.90;;;;;;;;;;4788531;30;20035;-82
2021/09/12 01:06:17;;;;;;;7.18;3.78;;;;;;;;;;4788812;30;20460;-84
2021/09/12 01:08:43;;;;;;;9.07;3.35;;;;;;;;;;4759077;30;20122;-85
2021/09/12 01:11:08;;;;;;;7.38;3.83;;;;;;;;;;4757902;30;20032;-83
2021/09/12 01:13:38;;;;;;;8.38;3.38;;;;;;;;;;4772505;30;20050;-85
2021/09/12 01:16:12;;;;;;;8.88;3.60;;;;;;;;;;4772398;30;20035;-84
2021/09/12 01:18:39;;;;;;;6.25;3.45;;;;;;;;;;4759276;30;20045;-83
2021/09/12 01:21:05;;;;;;;8.30;3.85;;;;;;;;;;4767321;30;20034;-85
2021/09/12 01:23:30;;;;;;;7.32;3.85;;;;;;;;;;4765495;30;20036;-83
2021/09/12 01:25:56;;;;;;;8.93;3.53;;;;;;;;;;4756760;30;20112;-85
2021/09/12 01:28:22;;;;;;;9.02;3.83;;;;;;;;;;4772630;30;20027;-83
2021/09/12 01:30:47;;;;;;;10.57;3.67;;;;;;;;;;4772356;30;20066;-83
2021/09/12 01:33:12;;;;;;;8.65;3.65;;;;;;;;;;4765954;30;20408;-85
2021/09/12 01:35:38;;;;;;;8.60;3.97;;;;;;;;;;4762575;30;20050;-85
2021/09/12 01:38:03;;;;;;;8.55;3.85;;;;;;;;;;4757039;30;20050;-83
2021/09/12 01:40:29;;;;;;;8.88;4.10;;;;;;;;;;4788272;30;20129;-86
2021/09/12 01:42:57;;;;;;;7.50;3.75;;;;;;;;;;4754422;30;20043;-83
2021/09/12 01:45:23;;;;;;;9.45;4.07;;;;;;;;;;4786749;30;20400;-83
2021/09/12 01:47:48;;;;;;;6.88;3.55;;;;;;;;;;4771948;30;20041;-85
2021/09/12 01:50:15;;;;;;;8.43;3.70;;;;;;;;;;4772320;30;20043;-83
2021/09/12 01:52:41;;;;;;;9.48;4.07;;;;;;;;;;4772961;30;20400;-85
2021/09/12 01:55:06;;;;;;;7.10;3.47;;;;;;;;;;4768849;30;20038;-82
2021/09/12 01:57:32;;;;;;;7.63;3.45;;;;;;;;;;4788479;30;20031;-85
2021/09/12 01:59:57;;;;;;;8.13;3.83;;;;;;;;;;4786575;29;20035;-86
2021/09/12 02:02:23;;;;;;;7.72;3.20;;;;;;;;;;4757436;30;20042;-83
2021/09/12 02:04:48;;;;;;;7.60;3.67;;;;;;;;;;4771844;30;20604;-82
2021/09/12 02:07:13;;;;;;;8.73;3.45;;;;;;;;;;4772241;30;20060;-86
2021/09/12 02:09:39;;;;;;;8.57;3.72;;;;;;;;;;4786323;30;20047;-83
2021/09/12 02:12:05;;;;;;;7.13;3.85;;;;;;;;;;4770874;30;20195;-83
2021/09/12 02:14:30;;;;;;;7.80;3.60;;;;;;;;;;4768792;30;20492;-86
2021/09/12 02:16:55;;;;;;;8.93;3.78;;;;;;;;;;4772077;30;20059;-86
2021/09/12 02:19:21;;;;;;;7.05;3.67;;;;;;;;;;4756960;30;20039;-86
2021/09/12 02:21:46;;;;;;;9.23;4.13;;;;;;;;;;4770266;30;20035;-83
2021/09/12 02:24:12;;;;;;;10.48;4.60;;;;;;;;;;4771485;30;20027;-83
2021/09/12 02:26:37;;;;;;;8.75;4.05;;;;;;;;;;4772007;30;20384;-83
2021/09/12 02:29:03;;;;;;;12.05;4.13;;;;;;;;;;4787199;30;20031;-86
2021/09/12 02:31:28;;;;;;;8.77;3.97;;;;;;;;;;4782413;30;20032;-82
2021/09/12 02:33:54;;;;;;;7.60;3.80;;;;;;;;;;4771376;30;20031;-83
2021/09/12 02:36:19;;;;;;;9.32;4.10;;;;;;;;;;4774818;30;20062;-86
2021/09/12 02:38:46;;;;;;;9.32;4.45;;;;;;;;;;4775445;30;20039;-83
2021/09/12 02:41:11;;;;;;;7.70;4.10;;;;;;;;;;4790128;30;20035;-83
2021/09/12 02:43:36;;;;;;;9.43;4.00;;;;;;;;;;4787141;30;20050;-83
2021/09/12 02:46:02;;;;;;;11.38;4.72;;;;;;;;;;4760074;30;20061;-85
2021/09/12 02:48:27;;;;;;;7.65;4.40;;;;;;;;;;4775318;30;20043;-83
2021/09/12 02:50:53;;;;;;;11.50;4.60;;;;;;;;;;4775215;30;20050;-83
2021/09/12 02:53:18;;;;;;;9.45;4.97;;;;;;;;;;4774662;30;20561;-86
2021/09/12 02:55:44;;;;;;;13.02;4.97;;;;;;;;;;4790775;29;20399;-83
2021/09/12 02:58:09;;;;;;;9.73;4.85;;;;;;;;;;4775153;30;20031;-83
2021/09/12 03:00:35;;;;;;;7.78;4.68;;;;;;;;;;4775043;30;20119;-83
2021/09/12 03:03:00;;;;;;;11.20;5.28;;;;;;;;;;4758955;30;20031;-86
2021/09/12 03:05:26;;;;;;;12.57;4.95;;;;;;;;;;4743999;30;20433;-83
2021/09/12 03:07:51;;;;;;;8.40;4.78;;;;;;;;;;4775188;30;20411;-85
2021/09/12 03:10:16;;;;;;;9.18;5.25;;;;;;;;;;4789229;30;20035;-83
2021/09/12 03:12:42;;;;;;;17.52;5.40;;;;;;;;;;4774776;30;20039;-83
2021/09/12 03:15:08;;;;;;;14.57;4.80;;;;;;;;;;4790935;30;20118;-83
2021/09/12 03:17:33;;;;;;;10.15;4.97;;;;;;;;;;4791131;30;20399;-83
2021/09/12 03:19:59;;;;;;;10.52;5.38;;;;;;;;;;4772614;30;20040;-86
2021/09/12 03:22:24;;;;;;;9.35;4.90;;;;;;;;;;4756426;30;20050;-85
2021/09/12 03:24:50;;;;;;;9.50;5.18;;;;;;;;;;4792886;29;20139;-85
2021/09/12 03:27:15;;;;;;;12.88;5.53;;;;;;;;;;4759997;30;20031;-83
2021/09/12 03:29:41;;;;;;;13.18;5.20;;;;;;;;;;4762509;30;20117;-85
2021/09/12 03:32:07;;;;;;;11.38;5.63;;;;;;;;;;4768583;30;20074;-83
2021/09/12 03:34:32;;;;;;;10.00;5.20;;;;;;;;;;4788424;30;20047;-83
2021/09/12 03:36:58;;;;;;;8.68;5.45;;;;;;;;;;4773891;30;20432;-83
2021/09/12 03:39:23;;;;;;;9.48;5.78;;;;;;;;;;4774212;30;20085;-85
2021/09/12 03:41:48;;;;;;;9.55;5.97;;;;;;;;;;4791373;29;20032;-84
2021/09/12 03:44:14;;;;;;;11.95;6.65;;;;;;;;;;4759383;30;20039;-85
2021/09/12 03:46:40;;;;;;;11.13;6.25;;;;;;;;;;4774037;30;20046;-86
2021/09/12 03:49:05;;;;;;;12.02;6.22;;;;;;;;;;4774089;30;20043;-82
2021/09/12 03:51:30;;;;;;;10.55;6.10;;;;;;;;;;4789795;30;20480;-85
2021/09/12 03:53:56;;;;;;;10.10;6.68;;;;;;;;;;4771607;30;20066;-85
2021/09/12 03:56:21;;;;;;;11.20;6.78;;;;;;;;;;4774089;30;20102;-83
2021/09/12 03:58:47;;;;;;;14.63;6.68;;;;;;;;;;4774277;30;20074;-82
2021/09/12 04:01:12;;;;;;;12.00;6.18;;;;;;;;;;4744641;30;20039;-84
2021/09/12 04:03:37;;;;;;;13.23;7.00;;;;;;;;;;4773108;30;20711;-83
2021/09/12 04:06:03;;;;;;;11.30;6.95;;;;;;;;;;4774054;30;20035;-82
2021/09/12 04:08:28;;;;;;;12.38;7.03;;;;;;;;;;4774241;30;20080;-85
2021/09/12 04:10:54;;;;;;;12.48;6.75;;;;;;;;;;4744397;30;20032;-85
2021/09/12 04:13:19;;;;;;;12.93;6.90;;;;;;;;;;4763111;30;20179;-85
2021/09/12 04:15:45;;;;;;;15.25;7.65;;;;;;;;;;4773573;30;20039;-86
2021/09/12 04:18:10;;;;;;;12.02;6.80;;;;;;;;;;4773719;30;20036;-85
2021/09/12 04:20:35;;;;;;;13.20;7.50;;;;;;;;;;4769833;30;20207;-83
2021/09/12 04:23:01;;;;;;;14.35;7.05;;;;;;;;;;4773812;30;20043;-83
2021/09/12 04:25:26;;;;;;;11.73;7.00;;;;;;;;;;4761321;30;20031;-84
2021/09/12 04:27:51;;;;;;;11.85;7.28;;;;;;;;;;4773485;30;20027;-85
2021/09/12 04:30:17;;;;;;;13.23;7.45;;;;;;;;;;4774938;30;20050;-86
2021/09/12 04:32:42;;;;;;;14.63;7.80;;;;;;;;;;4788169;30;20488;-83
2021/09/12 04:35:09;;;;;;;12.45;7.57;;;;;;;;;;4788165;30;20035;-85
2021/09/12 04:37:34;;;;;;;13.63;7.55;;;;;;;;;;4780804;30;20031;-83
2021/09/12 04:40:00;;;;;;;13.93;7.68;;;;;;;;;;4786538;30;20031;-85
2021/09/12 04:42:25;;;;;;;13.15;7.10;;;;;;;;;;4771256;30;20039;-85
2021/09/12 04:44:51;;;;;;;12.10;7.38;;;;;;;;;;4787973;29;20451;-85
2021/09/12 04:47:16;;;;;;;14.23;7.43;;;;;;;;;;4773128;30;20043;-83
2021/09/12 04:49:41;;;;;;;12.43;7.63;;;;;;;;;;4786078;30;20099;-85
2021/09/12 04:52:07;;;;;;;13.50;7.35;;;;;;;;;;4789206;30;20212;-85
2021/09/12 04:54:32;;;;;;;11.93;6.80;;;;;;;;;;4773120;30;20495;-83
2021/09/12 04:56:58;;;;;;;11.10;7.07;;;;;;;;;;4788725;30;20036;-86
2021/09/12 04:59:23;;;;;;;14.52;7.57;;;;;;;;;;4776664;29;20400;-85
2021/09/12 05:01:49;;;;;;;13.07;6.68;;;;;;;;;;4787677;30;20037;-83
2021/09/12 05:04:14;;;;;;;14.38;7.47;;;;;;;;;;4772883;30;20050;-84
2021/09/12 05:06:40;;;;;;;11.90;6.90;;;;;;;;;;4788292;30;20484;-85
2021/09/12 05:09:05;;;;;;;12.27;7.18;;;;;;;;;;4786904;30;20122;-85
2021/09/12 05:11:31;;;;;;;13.32;7.20;;;;;;;;;;4772644;30;20045;-83
2021/09/12 05:13:56;;;;;;;10.90;7.00;;;;;;;;;;4770160;30;20038;-85
2021/09/12 05:16:22;;;;;;;12.13;6.60;;;;;;;;;;4772589;30;20039;-84
2021/09/12 05:18:50;;;;;;;10.90;6.82;;;;;;;;;;4763946;30;20047;-85
2021/09/12 05:21:16;;;;;;;11.68;6.10;;;;;;;;;;4768668;30;20495;-85
2021/09/12 05:23:41;;;;;;;12.00;6.88;;;;;;;;;;4770798;30;20122;-82
2021/09/12 05:26:07;;;;;;;13.57;6.93;;;;;;;;;;4787307;30;20457;-83
2021/09/12 05:28:34;;;;;;;9.80;5.97;;;;;;;;;;4772134;30;20500;-83
2021/09/12 05:30:59;;;;;;;9.95;5.70;;;;;;;;;;4772493;30;20036;-85
2021/09/12 05:33:24;;;;;;;10.00;5.68;;;;;;;;;;4771815;30;20452;-85
2021/09/12 05:35:50;;;;;;;8.93;5.72;;;;;;;;;;4772459;30;20035;-84
2021/09/12 05:38:15;;;;;;;8.75;5.72;;;;;;;;;;4771805;30;20399;-82
2021/09/12 05:40:41;;;;;;;11.93;6.18;;;;;;;;;;4788375;30;20043;-84
2021/09/12 05:43:06;;;;;;;11.57;5.82;;;;;;;;;;4774405;30;20450;-85
2021/09/12 05:45:32;;;;;;;11.23;5.78;;;;;;;;;;4755938;30;20039;-85
2021/09/12 05:47:57;;;;;;;8.43;5.53;;;;;;;;;;4757358;30;20039;-85
2021/09/12 05:50:23;;;;;;;9.55;5.85;;;;;;;;;;4771446;30;20038;-83
2021/09/12 05:52:48;;;;;;;9.55;5.22;;;;;;;;;;4772159;30;20131;-85
2021/09/12 05:55:14;;;;;;;10.43;5.50;;;;;;;;;;4771927;30;20035;-85
2021/09/12 05:57:39;;;;;;;10.27;5.38;;;;;;;;;;4774578;30;20043;-81
2021/09/12 06:00:07;;;;;;;9.25;5.15;;;;;;;;;;4772123;30;20042;-83
2021/09/12 06:02:32;;;;;;;9.77;5.00;;;;;;;;;;4787838;30;20066;-85
2021/09/12 06:05:02;;;;;;;7.88;5.05;;;;;;;;;;4787854;29;20059;-84
2021/09/12 06:07:28;;;;;;;10.10;5.05;;;;;;;;;;4752460;30;20396;-83
2021/09/12 06:09:53;;;;;;;7.03;4.82;;;;;;;;;;4787378;30;20043;-83
2021/09/12 06:12:18;;;;;;;12.20;5.85;;;;;;;;;;4769768;30;20038;-84
2021/09/12 06:14:44;;;;;;;10.73;5.13;;;;;;;;;;4786673;30;20031;-84
2021/09/12 06:17:09;;;;;;;9.65;5.20;;;;;;;;;;4769014;30;20036;-83
2021/09/12 06:19:36;;;;;;;10.23;5.22;;;;;;;;;;4754369;30;20050;-83
2021/09/12 06:22:02;;;;;;;10.70;5.05;;;;;;;;;;4768705;30;20092;-82
2021/09/12 06:24:28;;;;;;;8.88;5.07;;;;;;;;;;4786471;30;20038;-82
2021/09/12 06:26:53;;;;;;;9.45;4.45;;;;;;;;;;4741966;30;20039;-85
2021/09/12 06:29:19;;;;;;;10.85;5.45;;;;;;;;;;4768684;30;20131;-84
2021/09/12 06:31:45;;;;;;;6.90;4.80;;;;;;;;;;4771548;30;20100;-84
2021/09/12 06:34:10;;;;;;;10.57;4.85;;;;;;;;;;4773109;30;20032;-82
2021/09/12 06:36:36;;;;;;;9.55;5.35;;;;;;;;;;4769341;30;20518;-83
2021/09/12 06:39:01;;;;;;;8.85;5.00;;;;;;;;;;4786477;30;20121;-82
2021/09/12 06:41:27;;;;;;;10.60;5.15;;;;;;;;;;4756922;30;20046;-83
2021/09/12 06:43:52;;;;;;;10.75;5.10;;;;;;;;;;4771548;30;20043;-84
2021/09/12 06:46:18;;;;;;;7.30;4.90;;;;;;;;;;4758852;30;20483;-81
2021/09/12 06:48:43;;;;;;;7.18;4.93;;;;;;;;;;4787771;30;20463;-82
2021/09/12 06:51:09;;;;;;;11.55;5.75;;;;;;;;;;4756264;30;20039;-83
2021/09/12 06:53:34;;;;;;;9.05;5.13;;;;;;;;;;4771067;30;20090;-84
2021/09/12 06:55:59;;;;;;;11.18;5.32;;;;;;;;;;4771396;30;20110;-83
2021/09/12 06:58:25;;;;;;;9.55;5.75;;;;;;;;;;4771374;30;20035;-82
2021/09/12 07:00:50;;;;;;;10.93;5.10;;;;;;;;;;4786189;29;20123;-84
2021/09/12 07:03:16;;;;;;;9.75;5.22;;;;;;;;;;4782489;30;20572;-85
2021/09/12 07:05:41;;;;;;;8.65;5.45;;;;;;;;;;4767279;30;20437;-85
2021/09/12 07:08:07;;;;;;;10.70;5.78;;;;;;;;;;4769692;30;20063;-84
2021/09/12 07:10:32;;;;;;;14.10;6.13;;;;;;;;;;4755182;30;20035;-84
2021/09/12 07:12:58;;;;;;;12.10;5.68;;;;;;;;;;4770268;29;20438;-85
2021/09/12 07:15:23;;;;;;;11.73;5.47;;;;;;;;;;4786094;29;20040;-84
2021/09/12 07:17:48;;;;;;;11.18;5.60;;;;;;;;;;4770964;30;20031;-82
2021/09/12 07:20:14;;;;;;;17.38;6.07;;;;;;;;;;4770165;30;20042;-84
2021/09/12 07:22:40;;;;;;;9.35;5.55;;;;;;;;;;4772406;30;20039;-83
2021/09/12 07:25:06;;;;;;;11.98;6.00;;;;;;;;;;4762666;30;20880;-85
2021/09/12 07:27:31;;;;;;;13.60;5.70;;;;;;;;;;4756479;30;20520;-84
2021/09/12 07:29:57;;;;;;;12.00;5.68;;;;;;;;;;4789618;30;20037;-84
2021/09/12 07:32:22;;;;;;;9.90;5.65;;;;;;;;;;4771056;30;20031;-83
2021/09/12 07:34:48;;;;;;;10.95;5.90;;;;;;;;;;4766650;30;20510;-84
2021/09/12 07:37:13;;;;;;;8.63;5.93;;;;;;;;;;4773763;30;20130;-85
2021/09/12 07:39:39;;;;;;;10.77;6.05;;;;;;;;;;4771811;30;20039;-84
2021/09/12 07:42:04;;;;;;;10.95;5.10;;;;;;;;;;4773156;30;20039;-84
2021/09/12 07:44:30;;;;;;;11.55;5.60;;;;;;;;;;4767417;30;20099;-84
2021/09/12 07:46:55;;;;;;;12.63;6.13;;;;;;;;;;4758078;30;20039;-85
2021/09/12 07:49:21;;;;;;;12.77;6.53;;;;;;;;;;4771385;30;20393;-85
2021/09/12 07:51:46;;;;;;;12.18;6.05;;;;;;;;;;4772885;30;20043;-86
2021/09/12 07:54:12;;;;;;;13.18;6.60;;;;;;;;;;4772284;30;20027;-83
2021/09/12 07:56:40;;;;;;;10.93;6.07;;;;;;;;;;4777395;30;20035;-82
2021/09/12 07:59:05;;;;;;;15.13;6.22;;;;;;;;;;4774570;30;20194;-82
2021/09/12 08:01:31;;;;;;;13.45;6.30;;;;;;;;;;4762871;30;20126;-85
2021/09/12 08:03:57;;;;;;;16.45;7.13;;;;;;;;;;4787004;30;20027;-85
2021/09/12 08:06:23;;;;;;;10.63;6.80;;;;;;;;;;4773844;30;20027;-82
2021/09/12 08:08:48;;;;;;;14.90;7.18;;;;;;;;;;4788983;30;20252;-82
2021/09/12 08:11:14;;;;;;;12.55;7.03;;;;;;;;;;4790717;30;20053;-83
2021/09/12 08:13:39;;;;;;;12.75;6.32;;;;;;;;;;4772070;30;20043;-84
2021/09/12 08:16:05;;;;;;;15.07;6.80;;;;;;;;;;4759643;30;20039;-82
2021/09/12 08:18:30;;;;;;;16.42;7.28;;;;;;;;;;4759151;30;20039;-82
2021/09/12 08:20:56;;;;;;;13.95;7.10;;;;;;;;;;4778016;29;20495;-84
2021/09/12 08:23:21;;;;;;;13.60;6.63;;;;;;;;;;4760214;30;20450;-85
2021/09/12 08:25:47;;;;;;;12.50;6.80;;;;;;;;;;4745772;30;20051;-82
2021/09/12 08:28:13;;;;;;;13.55;7.30;;;;;;;;;;4765630;29;20558;-84
2021/09/12 08:30:38;;;;;;;13.55;7.38;;;;;;;;;;4782198;29;20122;-83
2021/09/12 08:33:10;;;;;;;13.98;6.72;;;;;;;;;;4781321;29;22081;-84
2021/09/12 08:35:35;;;;;;;13.23;7.00;;;;;;;;;;4776749;29;20035;-83
2021/09/12 08:38:01;;;;;;;11.63;6.32;;;;;;;;;;4752092;30;20546;-82
2021/09/12 08:40:26;;;;;;;12.48;7.00;;;;;;;;;;4753210;30;20097;-83
2021/09/12 08:42:52;;;;;;;11.23;6.75;;;;;;;;;;4784539;30;20051;-85
2021/09/12 08:45:18;;;;;;;16.63;7.47;;;;;;;;;;4768307;30;20028;-82
2021/09/12 08:47:44;;;;;;;11.10;6.72;;;;;;;;;;4748709;30;20039;-84
2021/09/12 08:50:10;;;;;;;12.30;6.75;;;;;;;;;;4783154;30;20827;-85
2021/09/12 08:52:36;;;;;;;10.82;6.82;;;;;;;;;;4784426;30;20055;-82
2021/09/12 08:55:01;;;;;;;16.48;7.35;;;;;;;;;;4768851;30;20506;-84
2021/09/12 08:57:27;;;;;;;13.88;8.07;;;;;;;;;;4753761;30;20062;-82
2021/09/12 08:59:52;;;;;;;13.50;7.53;;;;;;;;;;4769180;30;20499;-85
2021/09/12 09:02:27;;;;;;;12.80;6.93;;;;;;;;;;4753247;30;20035;-82
2021/09/12 09:05:04;;;;;;;12.73;6.90;;;;;;;;;;4765320;30;20038;-83
2021/09/12 09:07:31;;;;;;;16.23;7.18;;;;;;;;;;4776129;30;20035;-84
2021/09/12 09:09:58;;;;;;;11.20;7.70;;;;;;;;;;4778865;30;20116;-83
2021/09/12 09:12:38;;;;;;;16.05;7.90;;;;;;;;;;4766530;30;20044;-82
2021/09/12 09:15:12;;;;;;;13.65;7.68;;;;;;;;;;4774625;30;20059;-85
2021/09/12 09:17:48;;;;;;;14.77;7.20;;;;;;;;;;4779150;30;20047;-82
2021/09/12 09:20:17;;;;;;;14.30;8.10;;;;;;;;;;4766846;30;20044;-82
2021/09/12 09:22:46;;;;;;;16.45;9.02;;;;;;;;;;4783193;30;20500;-82
2021/09/12 09:25:15;;;;;;;12.63;8.30;;;;;;;;;;4767103;30;20472;-82
2021/09/12 09:28:06;;;;;;;13.45;8.70;;;;;;;;;;4762905;30;20400;-85
2021/09/12 09:30:37;;;;;;;12.27;7.85;;;;;;;;;;4784109;30;20069;-82
2021/09/12 09:33:33;;;;;;;14.52;8.98;;;;;;;;;;4783963;30;20403;-85
2021/09/12 09:36:05;;;;;;;12.43;9.10;;;;;;;;;;4762590;30;20058;-82
2021/09/12 09:38:35;;;;;;;17.63;8.77;;;;;;;;;;4774312;30;20039;-82
2021/09/12 09:41:14;;;;;;;15.02;8.63;;;;;;;;;;4779963;30;20034;-85
2021/09/12 09:43:53;;;;;;;17.60;9.95;;;;;;;;;;4776860;29;20113;-81
2021/09/12 09:46:48;;;;;;;18.15;10.38;;;;;;;;;;4749904;30;20783;-82
2021/09/12 09:49:23;;;;;;;16.77;9.38;;;;;;;;;;4780985;30;20111;-82
2021/09/12 09:51:56;;;;;;;17.70;9.85;;;;;;;;;;4762594;30;20084;-83
2021/09/12 09:54:24;;;;;;;20.27;10.70;;;;;;;;;;4775861;30;20076;-82
2021/09/12 09:56:51;;;;;;;13.80;9.82;;;;;;;;;;4779149;29;20042;-82
2021/09/12 09:59:18;;;;;;;18.17;10.13;;;;;;;;;;4753482;30;20042;-85
2021/09/12 10:01:49;;;;;;;18.45;9.75;;;;;;;;;;4779543;29;20071;-85
2021/09/12 10:04:23;;;;;;;16.95;10.57;;;;;;;;;;4750673;30;20031;-82
2021/09/12 10:06:49;;;;;;;15.93;10.23;;;;;;;;;;4779300;30;20043;-82
2021/09/12 10:09:16;;;;;;;16.30;9.82;;;;;;;;;;4763104;30;20748;-82
2021/09/12 10:11:49;;;;;;;16.65;10.05;;;;;;;;;;4779300;30;20042;-84
2021/09/12 10:14:18;;;;;;;17.00;10.55;;;;;;;;;;4778975;30;20074;-82
2021/09/12 10:16:47;;;;;;;16.55;11.15;;;;;;;;;;4776017;30;20115;-85
2021/09/12 10:19:39;;;;;;;20.75;12.07;;;;;;;;;;4776582;30;20035;-85
2021/09/12 10:22:14;;;;;;;15.93;10.48;;;;;;;;;;4770255;30;20040;-82
2021/09/12 10:25:01;;;;;;;13.93;10.48;;;;;;;;;;4777456;30;20051;-84
2021/09/12 10:27:38;;;;;;;18.20;11.65;;;;;;;;;;4778755;30;20067;-84
2021/09/12 10:30:28;;;;;;;17.50;11.88;;;;;;;;;;4781039;30;20088;-84
2021/09/12 10:33:05;;;;;;;16.27;12.02;;;;;;;;;;4784015;29;20031;-84
2021/09/12 10:35:46;;;;;;;21.35;13.07;;;;;;;;;;4776394;30;20078;-81
2021/09/12 10:38:13;;;;;;;18.95;12.90;;;;;;;;;;4770681;30;20416;-86
2021/09/12 10:40:48;;;;;;;21.10;13.02;;;;;;;;;;4786048;30;20035;-82
2021/09/12 10:43:26;;;;;;;18.05;12.93;;;;;;;;;;4776374;30;20035;-82
2021/09/12 10:46:03;;;;;;;18.48;12.60;;;;;;;;;;4784882;30;20523;-84
2021/09/12 10:48:40;;;;;;;17.50;12.00;;;;;;;;;;4783711;30;20035;-83
2021/09/12 10:51:18;;;;;;;17.45;11.70;;;;;;;;;;4769863;30;20035;-85
2021/09/12 10:53:46;;;;;;;21.10;12.85;;;;;;;;;;4779175;30;20091;-82
2021/09/12 10:56:12;;;;;;;18.20;12.45;;;;;;;;;;4780335;29;20505;-83
2021/09/12 10:58:38;;;;;;;19.58;12.18;;;;;;;;;;4788428;29;20031;-81
2021/09/12 11:01:06;;;;;;;19.25;13.30;;;;;;;;;;4771516;30;20131;-82
2021/09/12 11:03:32;;;;;;;19.52;12.55;;;;;;;;;;4784814;30;20023;-81
2021/09/12 11:05:58;;;;;;;19.05;13.75;;;;;;;;;;4786118;30;20098;-84
2021/09/12 11:08:38;;;;;;;19.40;14.00;;;;;;;;;;4758103;30;20039;-83
2021/09/12 11:11:05;;;;;;;18.27;13.85;;;;;;;;;;4786608;29;20035;-84
2021/09/12 11:13:31;;;;;;;21.55;14.77;;;;;;;;;;4788154;30;20027;-83
2021/09/12 11:16:11;;;;;;;20.75;13.77;;;;;;;;;;4771959;30;20415;-84
2021/09/12 11:19:01;;;;;;;22.25;13.65;;;;;;;;;;4786673;30;20041;-84
2021/09/12 11:21:32;;;;;;;19.75;13.25;;;;;;;;;;4772252;30;20519;-84
2021/09/12 11:24:14;;;;;;;17.92;13.30;;;;;;;;;;4786289;30;20031;-85
2021/09/12 11:27:00;;;;;;;22.27;13.45;;;;;;;;;;4784879;30;20118;-84
2021/09/12 11:29:27;;;;;;;22.08;14.48;;;;;;;;;;4756339;30;20209;-83
2021/09/12 11:32:02;;;;;;;18.85;12.95;;;;;;;;;;4786261;30;20023;-82
2021/09/12 11:34:28;;;;;;;18.80;12.95;;;;;;;;;;4770675;30;20043;-85
2021/09/12 11:36:59;;;;;;;21.23;13.25;;;;;;;;;;4786442;30;20054;-82
2021/09/12 11:39:29;;;;;;;20.75;12.95;;;;;;;;;;4788740;30;20027;-82
2021/09/12 11:41:57;;;;;;;18.77;13.18;;;;;;;;;;4784460;30;20087;-83
2021/09/12 11:44:51;;;;;;;22.77;13.85;;;;;;;;;;4773076;30;20098;-85
2021/09/12 11:47:22;;;;;;;19.25;13.15;;;;;;;;;;4772159;30;20039;-85
2021/09/12 11:50:13;;;;;;;21.85;14.18;;;;;;;;;;4771481;30;20400;-85
2021/09/12 11:52:40;;;;;;;21.10;13.32;;;;;;;;;;4772839;30;20076;-84
2021/09/12 11:55:23;;;;;;;19.20;12.73;;;;;;;;;;4786614;30;20027;-85
2021/09/12 11:57:58;;;;;;;;;;;;;;;;;;4781885;30;20031;-85
2021/09/12 12:00:23;;;;;;;22.83;12.70;;;;;;;;;;4774620;30;19957;-85
2021/09/12 12:02:49;;;;;;;21.90;12.63;;;;;;;;;;4737737;30;20941;-82
2021/09/12 12:05:14;;;;;;;25.23;14.85;;;;;;;;;;4773286;30;20449;-85
2021/09/12 12:07:40;;;;;;;19.48;13.07;;;;;;;;;;4771176;29;20125;-85
2021/09/12 12:10:06;;;;;;;20.42;13.63;;;;;;;;;;4771065;30;20041;-85
2021/09/12 12:12:39;;;;;;;20.42;13.10;;;;;;;;;;4762153;30;20096;-84
2021/09/12 12:15:06;;;;;;;20.50;13.18;;;;;;;;;;4788201;30;20543;-84
2021/09/12 12:17:33;;;;;;;20.33;13.73;;;;;;;;;;4785356;30;20089;-84
2021/09/12 12:19:58;;;;;;;18.98;14.20;;;;;;;;;;4786405;29;20050;-80
2021/09/12 12:22:35;;;;;;;20.63;15.02;;;;;;;;;;4772490;30;20496;-84
2021/09/12 12:25:01;;;;;;;19.60;14.27;;;;;;;;;;4784833;30;20553;-81
2021/09/12 12:27:29;;;;;;;19.42;15.05;;;;;;;;;;4784233;30;20039;-82
2021/09/12 12:30:04;;;;;;;21.55;15.07;;;;;;;;;;4772234;30;20071;-81
2021/09/12 12:32:31;;;;;;;22.92;16.63;;;;;;;;;;4784649;30;20038;-84
2021/09/12 12:34:59;;;;;;;19.50;15.07;;;;;;;;;;4757364;30;20399;-81
2021/09/12 12:37:34;;;;;;;19.75;14.70;;;;;;;;;;4770837;30;20039;-80
2021/09/12 12:40:18;;;;;;;18.58;13.02;;;;;;;;;;4786685;29;20096;-84
2021/09/12 12:43:00;;;;;;;20.00;14.05;;;;;;;;;;4785522;30;20142;-84
2021/09/12 12:45:26;;;;;;;19.95;14.30;;;;;;;;;;4781900;29;20035;-81
2021/09/12 12:48:16;;;;;;;18.98;15.43;;;;;;;;;;4783478;29;20039;-85
2021/09/12 12:50:44;;;;;;;19.55;14.00;;;;;;;;;;4783480;30;20070;-82
2021/09/12 12:53:39;;;;;;;19.20;14.48;;;;;;;;;;4771515;30;20515;-81
2021/09/12 12:56:06;;;;;;;19.10;14.43;;;;;;;;;;4781728;30;20572;-83
2021/09/12 12:58:35;;;;;;;19.35;15.45;;;;;;;;;;4765277;30;20050;-85
2021/09/12 13:01:07;;;;;;;18.67;15.18;;;;;;;;;;4769028;30;20385;-82
2021/09/12 13:03:33;;;;;;;20.67;16.48;;;;;;;;;;4785398;30;20097;-84
2021/09/12 13:06:00;;;;;;;21.42;16.48;;;;;;;;;;4773349;30;20706;-83
2021/09/12 13:08:27;;;;;;;21.58;15.98;;;;;;;;;;4783941;29;20035;-83
2021/09/12 13:10:53;;;;;;;20.60;15.43;;;;;;;;;;4782909;30;20505;-83
2021/09/12 13:13:19;;;;;;;24.38;16.33;;;;;;;;;;4763834;30;20114;-83
2021/09/12 13:15:46;;;;;;;27.08;16.40;;;;;;;;;;4782899;30;20028;-82
2021/09/12 13:18:12;;;;;;;19.38;15.68;;;;;;;;;;4768508;30;20775;-85
2021/09/12 13:20:38;;;;;;;22.10;16.00;;;;;;;;;;4756093;30;20039;-82
2021/09/12 13:23:04;;;;;;;21.92;15.73;;;;;;;;;;4771806;30;20062;-82
2021/09/12 13:25:29;;;;;;;23.88;15.75;;;;;;;;;;4786996;30;20035;-81
2021/09/12 13:27:56;;;;;;;22.65;16.75;;;;;;;;;;4785104;29;20408;-82
2021/09/12 13:30:22;;;;;;;20.75;16.23;;;;;;;;;;4770132;30;20079;-82
2021/09/12 13:32:48;;;;;;;22.75;16.00;;;;;;;;;;4787296;30;20070;-82
2021/09/12 13:35:13;;;;;;;19.33;14.55;;;;;;;;;;4770322;30;20062;-85
2021/09/12 13:37:40;;;;;;;18.13;15.48;;;;;;;;;;4787192;30;20038;-84
2021/09/12 13:40:07;;;;;;;18.88;14.65;;;;;;;;;;4784614;29;20050;-83
2021/09/12 13:42:32;;;;;;;19.50;14.07;;;;;;;;;;4765552;30;20038;-82
2021/09/12 13:44:58;;;;;;;23.60;15.40;;;;;;;;;;4769398;30;20039;-84
2021/09/12 13:47:24;;;;;;;17.85;14.68;;;;;;;;;;4758592;30;20488;-83
2021/09/12 13:49:50;;;;;;;18.15;15.45;;;;;;;;;;4768774;30;20046;-85
2021/09/12 13:52:15;;;;;;;19.05;15.05;;;;;;;;;;4771337;30;20059;-83
2021/09/12 13:54:40;;;;;;;19.98;15.88;;;;;;;;;;4768679;30;20035;-84
2021/09/12 13:57:06;;;;;;;19.83;15.10;;;;;;;;;;4768359;30;20616;-85
2021/09/12 13:59:31;;;;;;;18.70;14.90;;;;;;;;;;4770228;30;20449;-83
2021/09/12 14:01:57;;;;;;;19.55;16.48;;;;;;;;;;4756510;30;20066;-85
2021/09/12 14:04:23;;;;;;;20.25;15.85;;;;;;;;;;4741178;30;20997;-83
2021/09/12 14:06:49;;;;;;;20.85;16.35;;;;;;;;;;4757701;30;20054;-82
2021/09/12 14:09:14;;;;;;;22.65;16.25;;;;;;;;;;4785782;30;20118;-83
2021/09/12 14:11:39;;;;;;;20.23;15.35;;;;;;;;;;4781497;30;20035;-83
2021/09/12 14:14:05;;;;;;;21.70;15.77;;;;;;;;;;4769509;30;20517;-84
2021/09/12 14:16:30;;;;;;;21.83;17.25;;;;;;;;;;4759928;30;20043;-84
2021/09/12 14:18:56;;;;;;;22.83;16.67;;;;;;;;;;4771581;30;20471;-85
2021/09/12 14:21:21;;;;;;;20.85;16.63;;;;;;;;;;4787890;29;20039;-82
2021/09/12 14:23:48;;;;;;;20.02;17.17;;;;;;;;;;4772183;30;20510;-84
2021/09/12 14:26:14;;;;;;;20.52;16.60;;;;;;;;;;4787039;30;20034;-82
2021/09/12 14:28:40;;;;;;;18.00;14.68;;;;;;;;;;4771457;30;20792;-85
2021/09/12 14:31:09;;;;;;;16.25;13.30;;;;;;;;;;4770090;30;20127;-83